createdAt,value
2018-07-26T04:10:23.543Z,1009.31
2018-07-26T04:10:49.036Z,1009.36
2018-07-26T04:11:14.518Z,1009.35
2018-07-26T04:11:40.004Z,1009.33
2018-07-26T04:12:05.508Z,1009.36
2018-07-26T04:12:31.018Z,1009.34
2018-07-26T04:12:56.538Z,1009.39
2018-07-26T04:13:22.013Z,1009.38
2018-07-26T04:13:47.664Z,1009.36
2018-07-26T04:14:13.151Z,1009.39
2018-07-26T04:14:38.647Z,1009.37
2018-07-26T04:15:04.130Z,1009.35
2018-07-26T04:15:29.602Z,1009.38
2018-07-26T04:15:55.111Z,1009.38
2018-07-26T04:16:20.583Z,1009.42
2018-07-26T04:16:46.069Z,1009.4
2018-07-26T04:17:11.570Z,1009.42
2018-07-26T04:17:37.054Z,1009.43
2018-07-26T04:18:02.558Z,1009.39
2018-07-26T04:18:28.036Z,1009.42
2018-07-26T04:18:53.543Z,1009.41
2018-07-26T04:19:19.024Z,1009.41
2018-07-26T04:19:44.569Z,1009.45
2018-07-26T04:20:10.057Z,1009.44
2018-07-26T04:20:35.480Z,1009.47
2018-07-26T04:21:00.975Z,1009.43
2018-07-26T04:21:26.492Z,1009.49
2018-07-26T04:21:52.037Z,1009.48
2018-07-26T04:22:17.455Z,1009.46
2018-07-26T04:22:43.059Z,1009.47
2018-07-26T04:23:08.451Z,1009.46
2018-07-26T04:23:34.044Z,1009.46
2018-07-26T04:23:59.437Z,1009.49
2018-07-26T04:24:24.931Z,1009.49
2018-07-26T04:24:50.408Z,1009.47
2018-07-26T04:25:15.908Z,1009.51
2018-07-26T04:25:41.447Z,1009.48
2018-07-26T04:26:06.982Z,1009.46
2018-07-26T04:26:32.502Z,1009.46
2018-07-26T04:26:57.944Z,1009.49
2018-07-26T04:27:23.439Z,1009.48
2018-07-26T04:27:48.999Z,1009.48
2018-07-26T04:28:14.522Z,1009.49
2018-07-26T04:28:40.086Z,1009.47
2018-07-26T04:29:05.520Z,1009.55
2018-07-26T04:29:30.906Z,1009.51
2018-07-26T04:29:56.433Z,1009.46
2018-07-26T04:30:21.929Z,1009.49
2018-07-26T04:30:47.440Z,1009.49
2018-07-26T04:31:12.888Z,1009.5
2018-07-26T04:31:38.344Z,1009.5
2018-07-26T04:32:03.950Z,1009.48
2018-07-26T04:32:29.341Z,1009.47
2018-07-26T04:32:54.826Z,1009.52
2018-07-26T04:33:20.301Z,1009.51
2018-07-26T04:33:45.777Z,1009.5
2018-07-26T04:34:11.252Z,1009.52
2018-07-26T04:34:36.749Z,1009.52
2018-07-26T04:35:02.205Z,1009.51
2018-07-26T04:35:27.698Z,1009.53
2018-07-26T04:35:53.185Z,1009.48
2018-07-26T04:36:18.659Z,1009.53
2018-07-26T04:36:44.170Z,1009.54
2018-07-26T04:37:09.628Z,1009.53
2018-07-26T04:37:35.113Z,1009.54
2018-07-26T04:38:00.653Z,1009.57
2018-07-26T04:38:26.087Z,1009.58
2018-07-26T04:38:51.598Z,1009.6
2018-07-26T04:39:17.130Z,1009.6
2018-07-26T04:39:42.651Z,1009.62
2018-07-26T04:40:08.134Z,1009.61
2018-07-26T04:40:33.603Z,1009.6
2018-07-26T04:40:59.081Z,1009.59
2018-07-26T04:41:24.555Z,1009.59
2018-07-26T04:41:50.136Z,1009.57
2018-07-26T04:42:15.540Z,1009.58
2018-07-26T04:42:41.094Z,1009.61
2018-07-26T04:43:06.702Z,1009.61
2018-07-26T04:43:32.091Z,1009.62
2018-07-26T04:43:57.594Z,1009.61
2018-07-26T04:44:23.084Z,1009.64
2018-07-26T04:44:48.623Z,1009.65
2018-07-26T04:45:14.118Z,1009.64
2018-07-26T04:45:39.666Z,1009.65
2018-07-26T04:46:05.135Z,1009.65
2018-07-26T04:46:30.556Z,1009.67
2018-07-26T04:46:56.093Z,1009.67
2018-07-26T04:47:21.620Z,1009.64
2018-07-26T04:47:47.252Z,1009.64
2018-07-26T04:48:12.666Z,1009.64
2018-07-26T04:48:38.199Z,1009.66
2018-07-26T04:49:03.663Z,1009.63
2018-07-26T04:49:29.195Z,1009.64
2018-07-26T04:49:54.732Z,1009.62
2018-07-26T04:50:20.395Z,1009.67
2018-07-26T04:50:46.032Z,1009.67
2018-07-26T04:51:11.489Z,1009.64
2018-07-26T04:51:36.933Z,1009.69
2018-07-26T04:52:02.536Z,1009.65
2018-07-26T04:52:27.994Z,1009.66
2018-07-26T04:52:53.888Z,1009.66
2018-07-26T04:53:19.430Z,1009.66
2018-07-26T04:53:44.839Z,1009.67
2018-07-26T04:54:10.396Z,1009.68
2018-07-26T04:54:35.956Z,1009.65
2018-07-26T04:55:01.326Z,1009.64
2018-07-26T04:55:26.835Z,1009.64
2018-07-26T04:55:52.308Z,1009.64
2018-07-26T04:56:17.881Z,1009.67
2018-07-26T04:56:43.610Z,1009.65
2018-07-26T04:57:08.807Z,1009.68
2018-07-26T04:57:34.318Z,1009.63
2018-07-26T04:57:59.837Z,1009.65
2018-07-26T04:58:25.340Z,1009.65
2018-07-26T04:58:50.833Z,1009.63
2018-07-26T04:59:16.347Z,1009.65
2018-07-26T04:59:41.877Z,1009.67
2018-07-26T05:00:07.356Z,1009.65
2018-07-26T05:00:32.829Z,1009.64
2018-07-26T05:00:58.351Z,1009.62
2018-07-26T05:01:23.827Z,1009.65
2018-07-26T05:01:49.333Z,1009.61
2018-07-26T05:02:14.844Z,1009.65
2018-07-26T05:03:28.991Z,1009.62
2018-07-26T05:03:54.488Z,1009.66
2018-07-26T05:04:19.984Z,1009.65
2018-07-26T05:04:45.462Z,1009.62
2018-07-26T05:05:11.172Z,1009.65
2018-07-26T05:05:36.615Z,1009.63
2018-07-26T05:06:02.150Z,1009.63
2018-07-26T05:06:27.621Z,1009.61
2018-07-26T05:06:53.092Z,1009.64
2018-07-26T05:07:18.617Z,1009.61
2018-07-26T05:07:44.722Z,1009.61
2018-07-26T05:08:10.255Z,1009.68
2018-07-26T05:08:35.747Z,1009.63
2018-07-26T05:09:01.225Z,1009.64
2018-07-26T05:09:26.941Z,1009.67
2018-07-26T05:09:52.459Z,1009.66
2018-07-26T05:10:18.064Z,1009.66
2018-07-26T05:10:44.381Z,1009.69
2018-07-26T05:11:09.823Z,1009.64
2018-07-26T05:11:35.415Z,1009.66
2018-07-26T05:12:00.938Z,1009.65
2018-07-26T05:13:04.555Z,1009.68
2018-07-26T05:13:30.073Z,1009.68
2018-07-26T05:13:55.595Z,1009.69
2018-07-26T05:14:21.178Z,1009.7
2018-07-26T05:15:34.952Z,1009.65
2018-07-26T05:16:00.524Z,1009.67
2018-07-26T05:16:26.033Z,1009.68
2018-07-26T05:16:51.527Z,1009.63
2018-07-26T05:17:17.031Z,1009.66
2018-07-26T05:17:42.519Z,1009.65
2018-07-26T05:18:08.029Z,1009.63
2018-07-26T05:18:33.599Z,1009.64
2018-07-26T05:18:59.050Z,1009.64
2018-07-26T05:19:24.496Z,1009.62
2018-07-26T05:19:50.029Z,1009.62
2018-07-26T05:20:15.519Z,1009.61
2018-07-26T05:21:34.705Z,1009.61
2018-07-26T05:22:00.213Z,1009.6
2018-07-26T05:22:25.729Z,1009.61
2018-07-26T05:22:51.216Z,1009.62
2018-07-26T05:23:16.711Z,1009.59
2018-07-26T05:23:42.295Z,1009.61
2018-07-26T05:24:07.791Z,1009.64
2018-07-26T05:24:33.312Z,1009.64
2018-07-26T05:24:58.774Z,1009.62
2018-07-26T05:25:24.295Z,1009.64
2018-07-26T05:25:49.786Z,1009.63
2018-07-26T05:26:15.311Z,1009.62
2018-07-26T05:26:40.825Z,1009.66
2018-07-26T05:27:06.321Z,1009.64
2018-07-26T05:27:31.861Z,1009.66
2018-07-26T05:28:30.383Z,1009.67
2018-07-26T05:28:55.957Z,1009.66
2018-07-26T05:29:21.421Z,1009.7
2018-07-26T05:29:46.899Z,1009.7
2018-07-26T05:30:12.366Z,1009.68
2018-07-26T05:30:37.915Z,1009.67
2018-07-26T05:31:03.395Z,1009.7
2018-07-26T05:31:29.023Z,1009.67
2018-07-26T05:31:54.538Z,1009.69
2018-07-26T05:32:20.019Z,1009.7
2018-07-26T05:32:45.554Z,1009.71
2018-07-26T05:33:11.062Z,1009.72
2018-07-26T05:33:36.583Z,1009.7
2018-07-26T05:34:02.102Z,1009.68
2018-07-26T05:34:27.613Z,1009.72
2018-07-26T05:34:53.132Z,1009.72
2018-07-26T05:35:18.623Z,1009.72
2018-07-26T05:35:44.125Z,1009.73
2018-07-26T05:36:09.628Z,1009.71
2018-07-26T05:36:35.125Z,1009.7
2018-07-26T05:37:33.636Z,1009.75
2018-07-26T05:37:59.132Z,1009.71
2018-07-26T05:38:24.632Z,1009.72
2018-07-26T05:38:50.126Z,1009.72
2018-07-26T05:39:53.761Z,1009.75
2018-07-26T05:40:19.263Z,1009.74
2018-07-26T05:40:44.741Z,1009.75
2018-07-26T05:41:10.254Z,1009.74
2018-07-26T05:41:35.742Z,1009.74
2018-07-26T05:42:01.270Z,1009.77
2018-07-26T05:42:26.764Z,1009.79
2018-07-26T05:42:52.364Z,1009.74
2018-07-26T05:43:17.943Z,1009.74
2018-07-26T05:43:43.325Z,1009.74
2018-07-26T05:44:08.792Z,1009.74
2018-07-26T05:44:34.300Z,1009.7
2018-07-26T05:44:59.806Z,1009.7
2018-07-26T05:45:25.312Z,1009.71
2018-07-26T05:45:50.806Z,1009.71
2018-07-26T05:46:16.283Z,1009.73
2018-07-26T05:46:41.808Z,1009.7
2018-07-26T05:47:50.863Z,1009.74
2018-07-26T05:48:16.348Z,1009.75
2018-07-26T05:48:41.846Z,1009.77
2018-07-26T05:49:07.316Z,1009.74
2018-07-26T05:49:32.824Z,1009.74
2018-07-26T05:49:58.388Z,1009.76
2018-07-26T05:50:23.900Z,1009.74
2018-07-26T05:50:49.380Z,1009.7
2018-07-26T05:51:14.870Z,1009.72
2018-07-26T05:51:40.400Z,1009.73
2018-07-26T05:52:05.888Z,1009.77
2018-07-26T05:52:31.412Z,1009.76
2018-07-26T05:52:56.975Z,1009.73
2018-07-26T05:53:22.559Z,1009.76
2018-07-26T05:53:47.971Z,1009.76
2018-07-26T05:54:13.472Z,1009.73
2018-07-26T05:54:39.051Z,1009.76
2018-07-26T05:55:04.545Z,1009.75
2018-07-26T05:55:30.030Z,1009.77
2018-07-26T05:55:55.593Z,1009.78
2018-07-26T05:56:21.124Z,1009.76
2018-07-26T05:56:46.589Z,1009.75
2018-07-26T05:57:12.130Z,1009.78
2018-07-26T05:57:37.577Z,1009.78
2018-07-26T05:58:03.096Z,1009.78
2018-07-26T05:58:28.575Z,1009.76
2018-07-26T05:58:54.063Z,1009.79
2018-07-26T06:00:13.262Z,1009.83
2018-07-26T06:00:38.728Z,1009.8
2018-07-26T06:01:04.270Z,1009.81
2018-07-26T06:01:29.762Z,1009.79
2018-07-26T06:01:55.280Z,1009.79
2018-07-26T06:02:20.794Z,1009.78
2018-07-26T06:02:46.285Z,1009.79
2018-07-26T06:03:11.797Z,1009.83
2018-07-26T06:03:37.306Z,1009.82
2018-07-26T06:04:02.836Z,1009.83
2018-07-26T06:04:28.349Z,1009.78
2018-07-26T06:04:53.883Z,1009.84
2018-07-26T06:05:19.429Z,1009.81
2018-07-26T06:05:44.942Z,1009.83
2018-07-26T06:06:10.498Z,1009.82
2018-07-26T06:06:35.970Z,1009.85
2018-07-26T06:07:01.515Z,1009.86
2018-07-26T06:07:27.024Z,1009.85
2018-07-26T06:07:52.489Z,1009.84
2018-07-26T06:08:17.989Z,1009.81
2018-07-26T06:08:43.487Z,1009.82
2018-07-26T06:09:09.048Z,1009.82
2018-07-26T06:09:34.577Z,1009.86
2018-07-26T06:09:59.984Z,1009.85
2018-07-26T06:10:25.481Z,1009.85
2018-07-26T06:10:50.944Z,1009.82
2018-07-26T06:11:16.491Z,1009.81
2018-07-26T06:11:41.973Z,1009.84
2018-07-26T06:12:07.469Z,1009.87
2018-07-26T06:12:32.953Z,1009.88
2018-07-26T06:12:58.482Z,1009.86
2018-07-26T06:13:23.971Z,1009.82
2018-07-26T06:13:49.623Z,1009.8
2018-07-26T06:14:15.014Z,1009.83
2018-07-26T06:14:40.540Z,1009.83
2018-07-26T06:15:06.060Z,1009.84
2018-07-26T06:15:31.579Z,1009.79
2018-07-26T06:15:57.072Z,1009.82
2018-07-26T06:16:22.583Z,1009.82
2018-07-26T06:16:48.090Z,1009.81
2018-07-26T06:17:13.610Z,1009.82
2018-07-26T06:17:39.125Z,1009.81
2018-07-26T06:18:04.650Z,1009.82
2018-07-26T06:18:30.132Z,1009.81
2018-07-26T06:18:55.634Z,1009.81
2018-07-26T06:19:21.139Z,1009.82
2018-07-26T06:19:46.611Z,1009.89
2018-07-26T06:20:12.089Z,1009.83
2018-07-26T06:20:37.647Z,1009.84
2018-07-26T06:21:03.082Z,1009.84
2018-07-26T06:21:28.627Z,1009.86
2018-07-26T06:21:54.142Z,1009.89
2018-07-26T06:22:19.694Z,1009.87
2018-07-26T06:22:45.160Z,1009.86
2018-07-26T06:23:10.716Z,1009.87
2018-07-26T06:23:36.181Z,1009.89
2018-07-26T06:24:01.696Z,1009.84
2018-07-26T06:24:27.209Z,1009.88
2018-07-26T06:24:52.722Z,1009.86
2018-07-26T06:25:18.244Z,1009.84
2018-07-26T06:25:43.910Z,1009.86
2018-07-26T06:26:09.416Z,1009.87
2018-07-26T06:26:34.921Z,1009.83
2018-07-26T06:27:00.423Z,1009.86
2018-07-26T06:27:25.902Z,1009.89
2018-07-26T06:27:51.394Z,1009.87
2018-07-26T06:28:16.947Z,1009.86
2018-07-26T06:28:42.343Z,1009.91
2018-07-26T06:29:07.880Z,1009.84
2018-07-26T06:29:33.359Z,1009.9
2018-07-26T06:29:58.878Z,1009.86
2018-07-26T06:30:24.384Z,1009.86
2018-07-26T06:30:49.911Z,1009.88
2018-07-26T06:31:15.409Z,1009.84
2018-07-26T06:31:40.886Z,1009.86
2018-07-26T06:32:06.425Z,1009.88
2018-07-26T06:32:31.908Z,1009.9
2018-07-26T06:32:57.385Z,1009.87
2018-07-26T06:33:22.961Z,1009.91
2018-07-26T06:33:48.550Z,1009.89
2018-07-26T06:34:13.951Z,1009.87
2018-07-26T06:34:39.451Z,1009.86
2018-07-26T06:35:04.989Z,1009.89
2018-07-26T06:35:30.521Z,1009.88
2018-07-26T06:35:56.011Z,1009.89
2018-07-26T06:36:21.499Z,1009.9
2018-07-26T06:36:47.057Z,1009.89
2018-07-26T06:37:12.548Z,1009.85
2018-07-26T06:37:38.188Z,1009.84
2018-07-26T06:38:03.704Z,1009.85
2018-07-26T06:38:29.214Z,1009.85
2018-07-26T06:38:54.697Z,1009.86
2018-07-26T06:39:20.244Z,1009.87
2018-07-26T06:39:45.802Z,1009.86
2018-07-26T06:40:11.294Z,1009.87
2018-07-26T06:40:36.846Z,1009.88
2018-07-26T06:41:02.430Z,1009.87
2018-07-26T06:42:12.259Z,1009.87
2018-07-26T06:42:37.846Z,1009.84
2018-07-26T06:43:03.422Z,1009.85
2018-07-26T06:43:29.268Z,1009.86
2018-07-26T06:43:54.752Z,1009.84
2018-07-26T06:44:20.371Z,1009.88
2018-07-26T06:44:45.899Z,1009.86
2018-07-26T06:45:11.611Z,1009.82
2018-07-26T06:45:37.140Z,1009.88
2018-07-26T06:46:02.840Z,1009.86
2018-07-26T06:46:28.463Z,1009.86
2018-07-26T06:46:54.039Z,1009.86
2018-07-26T06:47:19.541Z,1009.89
2018-07-26T06:47:45.203Z,1009.85
2018-07-26T06:48:10.667Z,1009.9
2018-07-26T06:48:36.159Z,1009.88
2018-07-26T06:49:01.697Z,1009.9
2018-07-26T06:49:27.194Z,1009.87
2018-07-26T06:49:52.805Z,1009.85
2018-07-26T06:50:18.358Z,1009.87
2018-07-26T06:50:43.925Z,1009.87
2018-07-26T06:51:09.451Z,1009.85
2018-07-26T06:51:34.944Z,1009.85
2018-07-26T06:52:00.461Z,1009.86
2018-07-26T06:52:25.962Z,1009.84
2018-07-26T06:52:51.502Z,1009.86
2018-07-26T06:53:17.038Z,1009.84
2018-07-26T06:53:43.063Z,1009.83
2018-07-26T06:54:08.573Z,1009.86
2018-07-26T06:54:34.143Z,1009.84
2018-07-26T06:54:59.738Z,1009.88
2018-07-26T06:55:25.263Z,1009.92
2018-07-26T06:55:50.895Z,1009.89
2018-07-26T06:56:16.459Z,1009.94
2018-07-26T06:56:41.983Z,1009.9
2018-07-26T06:57:07.597Z,1009.87
2018-07-26T06:57:33.035Z,1009.93
2018-07-26T06:57:58.635Z,1009.9
2018-07-26T06:58:24.132Z,1009.94
2018-07-26T06:58:49.619Z,1009.95
2018-07-26T06:59:15.122Z,1009.9
2018-07-26T06:59:40.639Z,1009.94
2018-07-26T07:00:06.269Z,1009.97
2018-07-26T07:00:31.772Z,1009.93
2018-07-26T07:00:57.189Z,1009.94
2018-07-26T07:01:22.713Z,1009.96
2018-07-26T07:01:48.299Z,1009.92
2018-07-26T07:02:13.833Z,1009.94
2018-07-26T07:02:39.311Z,1009.94
2018-07-26T07:03:04.826Z,1009.94
2018-07-26T07:03:30.299Z,1009.9
2018-07-26T07:03:55.841Z,1009.92
2018-07-26T07:04:21.294Z,1009.94
2018-07-26T07:04:46.800Z,1009.94
2018-07-26T07:05:12.311Z,1009.97
2018-07-26T07:05:37.827Z,1009.93
2018-07-26T07:06:03.353Z,1009.96
2018-07-26T07:06:28.958Z,1009.95
2018-07-26T07:06:54.555Z,1009.95
2018-07-26T07:07:19.989Z,1009.98
2018-07-26T07:07:45.523Z,1009.98
2018-07-26T07:08:11.026Z,1009.95
2018-07-26T07:08:36.547Z,1009.97
2018-07-26T07:09:02.052Z,1009.99
2018-07-26T07:09:27.550Z,1009.96
2018-07-26T07:09:52.999Z,1009.97
2018-07-26T07:10:18.505Z,1009.95
2018-07-26T07:10:43.976Z,1009.99
2018-07-26T07:11:09.518Z,1009.99
2018-07-26T07:11:35.020Z,1010
2018-07-26T07:12:00.504Z,1009.99
2018-07-26T07:12:26.026Z,1009.96
2018-07-26T07:12:51.492Z,1009.97
2018-07-26T07:13:17.130Z,1009.93
2018-07-26T07:13:42.610Z,1009.91
2018-07-26T07:14:08.113Z,1009.96
2018-07-26T07:14:33.647Z,1009.94
2018-07-26T07:14:59.187Z,1009.91
2018-07-26T07:15:24.676Z,1009.93
2018-07-26T07:15:50.188Z,1009.92
2018-07-26T07:16:15.644Z,1009.92
2018-07-26T07:16:41.146Z,1009.95
2018-07-26T07:17:06.631Z,1009.89
2018-07-26T07:17:32.102Z,1009.92
2018-07-26T07:17:57.633Z,1009.91
2018-07-26T07:18:23.052Z,1009.91
2018-07-26T07:18:48.545Z,1009.86
2018-07-26T07:19:14.057Z,1009.91
2018-07-26T07:19:39.510Z,1009.87
2018-07-26T07:20:05.011Z,1009.88
2018-07-26T07:20:30.529Z,1009.89
2018-07-26T07:20:55.971Z,1009.91
2018-07-26T07:21:21.474Z,1009.9
2018-07-26T07:21:46.955Z,1009.94
2018-07-26T07:22:12.425Z,1009.92
2018-07-26T07:22:37.945Z,1009.91
2018-07-26T07:23:03.410Z,1009.92
2018-07-26T07:23:28.931Z,1009.92
2018-07-26T07:23:54.393Z,1009.94
2018-07-26T07:24:19.896Z,1009.93
2018-07-26T07:24:45.412Z,1009.95
2018-07-26T07:25:10.870Z,1009.96
2018-07-26T07:26:14.579Z,1009.97
2018-07-26T07:26:40.081Z,1009.98
2018-07-26T07:27:05.591Z,1009.96
2018-07-26T07:27:31.116Z,1009.96
2018-07-26T07:27:56.628Z,1009.99
2018-07-26T07:28:22.124Z,1009.94
2018-07-26T07:28:47.574Z,1009.96
2018-07-26T07:29:13.107Z,1009.96
2018-07-26T07:29:38.583Z,1009.92
2018-07-26T07:30:04.091Z,1009.98
2018-07-26T07:30:29.576Z,1009.92
2018-07-26T07:30:55.133Z,1009.96
2018-07-26T07:31:20.627Z,1009.98
2018-07-26T07:31:46.305Z,1009.93
2018-07-26T07:32:11.747Z,1009.94
2018-07-26T07:33:20.539Z,1009.98
2018-07-26T07:33:45.945Z,1009.97
2018-07-26T07:34:11.789Z,1009.95
2018-07-26T07:34:37.291Z,1009.99
2018-07-26T07:35:02.780Z,1010
2018-07-26T07:35:28.341Z,1009.96
2018-07-26T07:35:53.827Z,1009.96
2018-07-26T07:36:19.512Z,1010
2018-07-26T07:36:44.979Z,1009.96
2018-07-26T07:37:10.653Z,1009.91
2018-07-26T07:37:36.212Z,1009.96
2018-07-26T07:38:01.729Z,1009.98
2018-07-26T07:38:27.223Z,1009.97
2018-07-26T07:38:52.709Z,1009.96
2018-07-26T07:39:18.315Z,1009.92
2018-07-26T07:39:43.770Z,1009.92
2018-07-26T07:40:09.274Z,1009.92
2018-07-26T07:40:34.998Z,1009.96
2018-07-26T07:41:00.587Z,1009.92
2018-07-26T07:41:26.130Z,1009.92
2018-07-26T07:41:51.653Z,1009.97
2018-07-26T07:42:17.101Z,1009.96
2018-07-26T07:42:42.752Z,1009.94
2018-07-26T07:43:08.432Z,1009.94
2018-07-26T07:43:33.888Z,1009.94
2018-07-26T07:43:59.429Z,1009.9
2018-07-26T07:44:24.832Z,1009.91
2018-07-26T07:44:50.352Z,1009.94
2018-07-26T07:45:15.797Z,1009.92
2018-07-26T07:45:41.275Z,1009.93
2018-07-26T07:46:06.801Z,1009.91
2018-07-26T07:46:32.350Z,1009.91
2018-07-26T07:46:57.769Z,1009.89
2018-07-26T07:47:23.380Z,1009.87
2018-07-26T07:47:48.814Z,1009.89
2018-07-26T07:48:14.202Z,1009.87
2018-07-26T07:48:39.783Z,1009.84
2018-07-26T07:49:05.320Z,1009.87
2018-07-26T07:49:30.830Z,1009.84
2018-07-26T07:49:56.407Z,1009.88
2018-07-26T07:50:21.896Z,1009.91
2018-07-26T07:50:47.559Z,1009.88
2018-07-26T07:51:13.084Z,1009.84
2018-07-26T07:51:38.699Z,1009.82
2018-07-26T07:52:04.317Z,1009.87
2018-07-26T07:52:30.013Z,1009.88
2018-07-26T07:52:55.621Z,1009.87
2018-07-26T07:53:21.253Z,1009.88
2018-07-26T07:53:46.744Z,1009.85
2018-07-26T07:54:12.094Z,1009.87
2018-07-26T07:54:37.586Z,1009.85
2018-07-26T07:55:03.064Z,1009.87
2018-07-26T07:55:28.580Z,1009.82
2018-07-26T07:55:54.170Z,1009.86
2018-07-26T07:56:19.786Z,1009.88
2018-07-26T07:56:45.232Z,1009.9
2018-07-26T07:57:10.730Z,1009.87
2018-07-26T07:57:36.280Z,1009.86
2018-07-26T07:58:01.760Z,1009.85
2018-07-26T07:58:27.278Z,1009.86
2018-07-26T07:58:52.844Z,1009.88
2018-07-26T07:59:18.345Z,1009.88
2018-07-26T07:59:43.880Z,1009.89
2018-07-26T08:00:09.391Z,1009.9
2018-07-26T08:00:34.867Z,1009.89
2018-07-26T08:01:00.377Z,1009.84
2018-07-26T08:01:25.858Z,1009.86
2018-07-26T08:01:51.378Z,1009.87
2018-07-26T08:02:16.846Z,1009.87
2018-07-26T08:02:42.402Z,1009.87
2018-07-26T08:03:07.887Z,1009.89
2018-07-26T08:03:33.406Z,1009.87
2018-07-26T08:03:58.963Z,1009.9
2018-07-26T08:04:24.511Z,1009.93
2018-07-26T08:04:49.965Z,1009.88
2018-07-26T08:05:15.474Z,1009.92
2018-07-26T08:05:40.920Z,1009.87
2018-07-26T08:06:06.440Z,1009.92
2018-07-26T08:06:31.966Z,1009.91
2018-07-26T08:06:57.480Z,1009.89
2018-07-26T08:07:22.975Z,1009.87
2018-07-26T08:07:48.532Z,1009.89
2018-07-26T08:08:14.132Z,1009.87
2018-07-26T08:08:39.620Z,1009.91
2018-07-26T08:09:05.160Z,1009.92
2018-07-26T08:09:30.713Z,1009.89
2018-07-26T08:09:56.291Z,1009.89
2018-07-26T08:10:22.036Z,1009.93
2018-07-26T08:10:47.572Z,1009.9
2018-07-26T08:11:13.108Z,1009.91
2018-07-26T08:11:38.582Z,1009.9
2018-07-26T08:12:04.104Z,1009.91
2018-07-26T08:12:29.636Z,1009.88
2018-07-26T08:12:55.128Z,1009.89
2018-07-26T08:13:20.597Z,1009.85
2018-07-26T08:13:46.099Z,1009.86
2018-07-26T08:14:11.656Z,1009.9
2018-07-26T08:14:37.180Z,1009.87
2018-07-26T08:15:02.700Z,1009.88
2018-07-26T08:15:28.398Z,1009.88
2018-07-26T08:15:53.770Z,1009.87
2018-07-26T08:16:19.278Z,1009.83
2018-07-26T08:16:44.782Z,1009.85
2018-07-26T08:17:10.290Z,1009.89
2018-07-26T08:17:35.801Z,1009.87
2018-07-26T08:18:01.305Z,1009.9
2018-07-26T08:18:26.818Z,1009.87
2018-07-26T08:18:52.299Z,1009.86
2018-07-26T08:19:17.827Z,1009.88
2018-07-26T08:19:43.369Z,1009.86
2018-07-26T08:20:08.934Z,1009.86
2018-07-26T08:20:34.457Z,1009.87
2018-07-26T08:20:59.924Z,1009.89
2018-07-26T08:21:25.547Z,1009.86
2018-07-26T08:21:51.013Z,1009.88
2018-07-26T08:22:16.522Z,1009.87
2018-07-26T08:22:42.078Z,1009.87
2018-07-26T08:23:07.608Z,1009.89
2018-07-26T08:23:33.111Z,1009.86
2018-07-26T08:23:58.660Z,1009.88
2018-07-26T08:24:24.159Z,1009.89
2018-07-26T08:24:49.681Z,1009.88
2018-07-26T08:25:15.203Z,1009.91
2018-07-26T08:26:29.021Z,1009.88
2018-07-26T08:26:54.488Z,1009.87
2018-07-26T08:27:20.000Z,1009.86
2018-07-26T08:27:45.529Z,1009.87
2018-07-26T08:28:11.011Z,1009.88
2018-07-26T08:28:36.484Z,1009.9
2018-07-26T08:29:02.004Z,1009.91
2018-07-26T08:29:27.525Z,1009.88
2018-07-26T08:29:52.982Z,1009.87
2018-07-26T08:30:18.504Z,1009.9
2018-07-26T08:31:22.137Z,1009.85
2018-07-26T08:31:47.621Z,1009.82
2018-07-26T08:32:13.161Z,1009.87
2018-07-26T08:32:38.675Z,1009.86
2018-07-26T08:33:04.215Z,1009.83
2018-07-26T08:33:29.726Z,1009.87
2018-07-26T08:33:55.245Z,1009.86
2018-07-26T08:34:20.745Z,1009.87
2018-07-26T08:34:46.314Z,1009.88
2018-07-26T08:35:44.959Z,1009.83
2018-07-26T08:36:10.468Z,1009.86
2018-07-26T08:36:35.967Z,1009.88
2018-07-26T08:37:01.476Z,1009.84
2018-07-26T08:37:26.993Z,1009.83
2018-07-26T08:37:52.478Z,1009.85
2018-07-26T08:38:17.985Z,1009.85
2018-07-26T08:38:43.481Z,1009.87
2018-07-26T08:39:08.993Z,1009.81
2018-07-26T08:40:17.716Z,1009.81
2018-07-26T08:40:43.207Z,1009.79
2018-07-26T08:41:08.784Z,1009.83
2018-07-26T08:41:34.313Z,1009.78
2018-07-26T08:41:59.912Z,1009.78
2018-07-26T08:42:25.427Z,1009.79
2018-07-26T08:42:50.917Z,1009.75
2018-07-26T08:43:16.427Z,1009.78
2018-07-26T08:43:42.014Z,1009.76
2018-07-26T08:44:07.408Z,1009.75
2018-07-26T08:44:32.890Z,1009.77
2018-07-26T08:44:58.381Z,1009.76
2018-07-26T08:45:23.903Z,1009.75
2018-07-26T08:45:49.419Z,1009.75
2018-07-26T08:46:14.903Z,1009.74
2018-07-26T08:46:40.417Z,1009.72
2018-07-26T08:47:05.953Z,1009.73
2018-07-26T08:47:31.480Z,1009.74
2018-07-26T08:47:56.990Z,1009.69
2018-07-26T08:48:22.647Z,1009.73
2018-07-26T08:48:48.149Z,1009.73
2018-07-26T08:49:13.689Z,1009.73
2018-07-26T08:49:39.186Z,1009.71
2018-07-26T08:50:04.692Z,1009.7
2018-07-26T08:50:30.227Z,1009.71
2018-07-26T08:50:55.708Z,1009.68
2018-07-26T08:51:21.343Z,1009.72
2018-07-26T08:51:46.951Z,1009.74
2018-07-26T08:52:12.612Z,1009.76
2018-07-26T08:52:38.009Z,1009.73
2018-07-26T08:53:03.622Z,1009.71
2018-07-26T08:53:29.100Z,1009.72
2018-07-26T08:53:54.628Z,1009.71
2018-07-26T08:54:20.187Z,1009.69
2018-07-26T08:54:45.677Z,1009.72
2018-07-26T08:55:11.232Z,1009.75
2018-07-26T08:55:36.716Z,1009.71
2018-07-26T08:56:02.197Z,1009.71
2018-07-26T08:56:27.698Z,1009.71
2018-07-26T08:56:53.204Z,1009.68
2018-07-26T08:57:18.690Z,1009.72
2018-07-26T08:57:44.407Z,1009.7
2018-07-26T08:58:09.962Z,1009.7
2018-07-26T08:58:35.463Z,1009.7
2018-07-26T08:59:00.967Z,1009.71
2018-07-26T08:59:26.504Z,1009.7
2018-07-26T08:59:52.065Z,1009.72
2018-07-26T09:00:17.811Z,1009.67
2018-07-26T09:01:26.500Z,1009.74
2018-07-26T09:01:52.006Z,1009.78
2018-07-26T09:02:17.720Z,1009.69
2018-07-26T09:02:43.259Z,1009.72
2018-07-26T09:03:08.680Z,1009.71
2018-07-26T09:03:34.169Z,1009.73
2018-07-26T09:03:59.675Z,1009.76
2018-07-26T09:04:25.172Z,1009.78
2018-07-26T09:04:50.668Z,1009.73
2018-07-26T09:05:16.175Z,1009.74
2018-07-26T09:05:41.664Z,1009.71
2018-07-26T09:06:07.303Z,1009.73
2018-07-26T09:06:32.851Z,1009.71
2018-07-26T09:06:58.364Z,1009.71
2018-07-26T09:07:23.926Z,1009.67
2018-07-26T09:07:49.438Z,1009.71
2018-07-26T09:08:14.864Z,1009.7
2018-07-26T09:08:40.334Z,1009.7
2018-07-26T09:09:05.824Z,1009.67
2018-07-26T09:09:31.455Z,1009.66
2018-07-26T09:09:56.997Z,1009.74
2018-07-26T09:10:22.505Z,1009.75
2018-07-26T09:10:47.980Z,1009.72
2018-07-26T09:11:13.456Z,1009.68
2018-07-26T09:11:39.087Z,1009.66
2018-07-26T09:12:04.558Z,1009.7
2018-07-26T09:12:30.065Z,1009.7
2018-07-26T09:12:55.577Z,1009.63
2018-07-26T09:13:21.358Z,1009.69
2018-07-26T09:13:46.861Z,1009.66
2018-07-26T09:14:12.574Z,1009.65
2018-07-26T09:14:38.437Z,1009.66
2018-07-26T09:15:04.136Z,1009.63
2018-07-26T09:15:29.639Z,1009.67
2018-07-26T09:15:55.444Z,1009.6
2018-07-26T09:16:20.998Z,1009.62
2018-07-26T09:16:46.517Z,1009.68
2018-07-26T09:17:12.037Z,1009.66
2018-07-26T09:17:37.726Z,1009.65
2018-07-26T09:18:03.254Z,1009.64
2018-07-26T09:18:28.735Z,1009.67
2018-07-26T09:18:54.227Z,1009.66
2018-07-26T09:19:19.745Z,1009.68
2018-07-26T09:19:45.600Z,1009.65
2018-07-26T09:20:11.084Z,1009.63
2018-07-26T09:20:36.572Z,1009.6
2018-07-26T09:21:02.151Z,1009.66
2018-07-26T09:21:27.786Z,1009.72
2018-07-26T09:21:53.442Z,1009.61
2018-07-26T09:22:18.950Z,1009.63
2018-07-26T09:22:44.476Z,1009.63
2018-07-26T09:23:09.977Z,1009.61
2018-07-26T09:23:35.529Z,1009.65
2018-07-26T09:24:01.333Z,1009.66
2018-07-26T09:24:26.889Z,1009.71
2018-07-26T09:24:52.371Z,1009.64
2018-07-26T09:25:17.886Z,1009.65
2018-07-26T09:25:43.401Z,1009.66
2018-07-26T09:26:08.883Z,1009.66
2018-07-26T09:26:34.543Z,1009.62
2018-07-26T09:27:00.041Z,1009.65
2018-07-26T09:27:25.525Z,1009.64
2018-07-26T09:27:51.010Z,1009.63
2018-07-26T09:28:16.523Z,1009.62
2018-07-26T09:28:42.044Z,1009.61
2018-07-26T09:29:07.505Z,1009.61
2018-07-26T09:29:32.990Z,1009.64
2018-07-26T09:29:58.462Z,1009.58
2018-07-26T09:30:23.982Z,1009.61
2018-07-26T09:30:49.503Z,1009.62
2018-07-26T09:31:15.010Z,1009.61
2018-07-26T09:31:40.499Z,1009.59